createdAt,value
2022-11-22T00:01:13.294Z,89454.03
2022-11-22T00:03:39.581Z,89442.38
2022-11-22T00:06:05.833Z,89443.91
2022-11-22T00:08:33.338Z,89444.63
2022-11-22T00:10:59.618Z,89440.19
2022-11-22T00:13:25.893Z,89439.06
2022-11-22T00:16:01.157Z,89445.38
2022-11-22T00:18:28.040Z,89454.03
2022-11-22T00:20:54.330Z,89445.38
2022-11-22T00:23:20.602Z,89441.88
2022-11-22T00:25:46.896Z,89443.00
2022-11-22T00:28:13.172Z,89440.84
2022-11-22T00:30:39.443Z,89440.13
2022-11-22T00:33:05.712Z,89438.41
2022-11-22T00:35:32.018Z,89443.81
2022-11-22T00:37:58.286Z,89435.84
2022-11-22T00:40:24.608Z,89446.00
2022-11-22T00:42:50.901Z,89436.34
2022-11-22T00:45:17.185Z,89437.06
2022-11-22T00:47:43.465Z,89434.41
2022-11-22T00:50:10.139Z,89431.00
2022-11-22T00:52:36.531Z,89430.00
2022-11-22T00:55:02.790Z,89431.47
2022-11-22T00:57:29.046Z,89431.44
2022-11-22T00:59:55.480Z,89436.09
2022-11-22T01:02:21.860Z,89432.78
2022-11-22T01:04:48.165Z,89427.16
2022-11-22T01:07:14.453Z,89418.94
2022-11-22T01:09:40.738Z,89419.44
2022-11-22T01:12:06.995Z,89423.59
2022-11-22T01:14:33.268Z,89410.47
2022-11-22T01:16:59.565Z,89408.81
2022-11-22T01:19:25.852Z,89415.16
2022-11-22T01:21:52.156Z,89420.81
2022-11-22T01:24:18.442Z,89413.06
2022-11-22T01:26:44.750Z,89415.53
2022-11-22T01:29:11.037Z,89412.94
2022-11-22T01:31:37.328Z,89423.13
2022-11-22T01:34:04.791Z,89424.66
2022-11-22T01:36:31.053Z,89431.78
2022-11-22T01:38:57.324Z,89433.22
2022-11-22T01:41:23.600Z,89425.22
2022-11-22T01:43:49.895Z,89427.25
2022-11-22T01:46:18.725Z,89426.69
2022-11-22T01:48:49.397Z,89429.09
2022-11-22T01:51:17.457Z,89428.31
2022-11-22T01:53:43.715Z,89423.28
2022-11-22T01:56:12.147Z,89424.38
2022-11-22T01:58:38.429Z,89424.53
2022-11-22T02:01:04.765Z,89418.13
2022-11-22T02:03:31.392Z,89441.41
2022-11-22T02:05:57.725Z,89431.16
2022-11-22T02:08:45.168Z,89422.72
2022-11-22T02:11:11.452Z,89425.81
2022-11-22T02:13:39.301Z,89422.16
2022-11-22T02:16:05.564Z,89420.59
2022-11-22T02:18:33.856Z,89436.16
2022-11-22T02:21:00.156Z,89434.63
2022-11-22T02:23:26.390Z,89438.72
2022-11-22T02:25:56.241Z,89431.50
2022-11-22T02:28:22.593Z,89433.97
2022-11-22T02:30:48.936Z,89433.59
2022-11-22T02:33:15.212Z,89446.91
2022-11-22T02:35:41.905Z,89436.31
2022-11-22T02:38:08.781Z,89437.44
2022-11-22T02:40:37.178Z,89434.06
2022-11-22T02:43:04.505Z,89432.13
2022-11-22T02:45:30.781Z,89431.91
2022-11-22T02:48:07.268Z,89434.38
2022-11-22T02:50:33.600Z,89434.13
2022-11-22T02:52:59.879Z,89430.06
2022-11-22T02:55:26.157Z,89422.78
2022-11-22T02:57:52.437Z,89414.91
2022-11-22T03:00:18.829Z,89419.38
2022-11-22T03:02:45.135Z,89415.78
2022-11-22T03:05:11.471Z,89417.56
2022-11-22T03:07:37.864Z,89412.88
2022-11-22T03:10:04.279Z,89422.28
2022-11-22T03:12:30.588Z,89423.41
2022-11-22T03:14:56.872Z,89425.53
2022-11-22T03:17:23.140Z,89412.00
2022-11-22T03:19:49.412Z,89417.81
2022-11-22T03:22:15.716Z,89418.34
2022-11-22T03:24:41.980Z,89429.78
2022-11-22T03:27:08.259Z,89415.31
2022-11-22T03:29:34.610Z,89418.75
2022-11-22T03:32:00.912Z,89416.38
2022-11-22T03:34:27.191Z,89417.06
2022-11-22T03:36:53.485Z,89421.66
2022-11-22T03:39:19.778Z,89419.19
2022-11-22T03:41:46.035Z,89421.13
2022-11-22T03:44:12.344Z,89422.66
2022-11-22T03:46:38.642Z,89426.22
2022-11-22T03:49:05.031Z,89427.59
2022-11-22T03:51:31.418Z,89435.72
2022-11-22T03:53:57.764Z,89428.41
2022-11-22T03:56:24.067Z,89438.09
2022-11-22T03:58:50.341Z,89436.59
2022-11-22T04:01:17.099Z,89428.16
2022-11-22T04:03:43.489Z,89437.09
2022-11-22T04:06:09.746Z,89437.13
2022-11-22T04:08:36.121Z,89436.13
2022-11-22T04:11:02.433Z,89426.03
2022-11-22T04:13:48.697Z,89431.91
2022-11-22T04:16:15.056Z,89432.75
2022-11-22T04:18:41.446Z,89434.03
2022-11-22T04:21:26.052Z,89430.94
2022-11-22T04:24:12.301Z,89446.97
2022-11-22T04:26:38.568Z,89445.91
2022-11-22T04:29:12.086Z,89443.03
2022-11-22T04:31:57.081Z,89445.84
2022-11-22T04:34:23.366Z,89449.72
2022-11-22T04:36:49.639Z,89457.00
2022-11-22T04:39:15.909Z,89454.81
2022-11-22T04:41:42.196Z,89447.47
2022-11-22T04:44:27.749Z,89441.53
2022-11-22T04:46:54.069Z,89443.06
2022-11-22T04:49:20.339Z,89440.84
2022-11-22T04:52:05.352Z,89457.41
2022-11-22T04:54:31.604Z,89469.88
2022-11-22T04:56:57.891Z,89463.72
2022-11-22T04:59:24.176Z,89472.16
2022-11-22T05:01:52.071Z,89481.03
2022-11-22T05:04:18.327Z,89478.19
2022-11-22T05:06:44.612Z,89480.69
2022-11-22T05:09:10.869Z,89477.19
2022-11-22T05:11:37.244Z,89479.66
2022-11-22T05:14:04.247Z,89476.34
2022-11-22T05:16:30.540Z,89471.09
2022-11-22T05:18:59.743Z,89477.00
2022-11-22T05:21:26.572Z,89477.97
2022-11-22T05:23:55.831Z,89483.78
2022-11-22T05:26:22.092Z,89478.53
2022-11-22T05:28:48.495Z,89485.59
2022-11-22T05:31:16.471Z,89493.59
2022-11-22T05:33:43.797Z,89490.53
2022-11-22T05:36:10.139Z,89497.03
2022-11-22T05:38:37.568Z,89494.94
2022-11-22T05:41:04.156Z,89497.13
2022-11-22T05:43:30.494Z,89500.69
2022-11-22T05:45:56.832Z,89503.44
2022-11-22T05:48:23.118Z,89507.22
2022-11-22T05:50:49.435Z,89512.06
2022-11-22T05:53:15.713Z,89510.09
2022-11-22T05:55:42.010Z,89522.41
2022-11-22T05:58:08.290Z,89527.94
2022-11-22T06:00:34.557Z,89541.25
2022-11-22T06:03:01.660Z,89540.16
2022-11-22T06:05:28.064Z,89555.16
2022-11-22T06:07:56.795Z,89557.97
2022-11-22T06:10:23.095Z,89555.91
2022-11-22T06:12:49.365Z,89565.97
2022-11-22T06:15:15.734Z,89560.19
2022-11-22T06:17:42.295Z,89567.63
2022-11-22T06:20:09.006Z,89565.84
2022-11-22T06:22:35.300Z,89566.38
2022-11-22T06:25:01.588Z,89572.75
2022-11-22T06:27:27.861Z,89575.09
2022-11-22T06:29:54.141Z,89574.13
2022-11-22T06:32:20.433Z,89578.28
2022-11-22T06:34:46.706Z,89584.91
2022-11-22T06:37:14.983Z,89584.22
2022-11-22T06:39:41.373Z,89585.31
2022-11-22T06:42:07.656Z,89585.75
2022-11-22T06:44:34.169Z,89584.59
2022-11-22T06:47:00.445Z,89584.19
2022-11-22T06:49:26.952Z,89589.91
2022-11-22T06:51:53.556Z,89590.91
2022-11-22T06:54:19.813Z,89595.63
2022-11-22T06:56:46.144Z,89599.69
2022-11-22T06:59:12.477Z,89592.22
2022-11-22T07:01:38.917Z,89582.69
2022-11-22T07:04:05.254Z,89590.59
2022-11-22T07:06:32.488Z,89594.06
2022-11-22T07:08:59.237Z,89594.38
2022-11-22T07:11:26.232Z,89591.63
2022-11-22T07:13:52.609Z,89591.13
2022-11-22T07:16:19.632Z,89593.63
2022-11-22T07:18:45.958Z,89593.88
2022-11-22T07:21:13.778Z,89589.59
2022-11-22T07:23:43.465Z,89593.19
2022-11-22T07:26:10.014Z,89587.66
2022-11-22T07:28:36.552Z,89594.16
2022-11-22T07:31:03.425Z,89593.63
2022-11-22T07:33:29.735Z,89595.53
2022-11-22T07:35:56.047Z,89593.22
2022-11-22T07:38:22.318Z,89598.47
2022-11-22T07:40:48.704Z,89606.75
2022-11-22T07:43:15.211Z,89612.69
2022-11-22T07:45:41.484Z,89617.81
2022-11-22T07:48:07.780Z,89627.75
2022-11-22T07:50:34.067Z,89626.38
2022-11-22T07:53:00.369Z,89630.66
2022-11-22T07:55:26.862Z,89625.41
2022-11-22T07:57:53.345Z,89627.63
2022-11-22T08:00:19.752Z,89633.84
2022-11-22T08:02:46.143Z,89640.75
2022-11-22T08:05:12.493Z,89638.94
2022-11-22T08:07:38.806Z,89643.91
2022-11-22T08:10:05.360Z,89643.38
2022-11-22T08:12:31.665Z,89645.84
2022-11-22T08:14:57.928Z,89646.25
2022-11-22T08:17:24.196Z,89651.38
2022-11-22T08:19:53.359Z,89659.00
2022-11-22T08:22:19.623Z,89655.66
2022-11-22T08:24:45.908Z,89652.31
2022-11-22T08:27:12.166Z,89658.25
2022-11-22T08:29:38.462Z,89659.66
2022-11-22T08:32:04.753Z,89656.72
2022-11-22T08:34:31.028Z,89653.00
2022-11-22T08:36:57.316Z,89658.50
2022-11-22T08:39:23.697Z,89654.31
2022-11-22T08:41:49.992Z,89654.56
2022-11-22T08:44:16.273Z,89653.56
2022-11-22T08:46:42.548Z,89649.66
2022-11-22T08:49:10.500Z,89656.81
2022-11-22T08:51:37.026Z,89647.38
2022-11-22T08:54:03.283Z,89649.31
2022-11-22T08:56:29.558Z,89658.19
2022-11-22T08:58:55.955Z,89662.09
2022-11-22T09:01:23.413Z,89654.75
2022-11-22T09:03:49.811Z,89657.06
2022-11-22T09:11:49.290Z,89648.09
2022-11-22T09:14:15.597Z,89662.28
2022-11-22T09:16:41.891Z,89671.44
2022-11-22T09:19:08.306Z,89668.66
2022-11-22T09:21:34.585Z,89681.09
2022-11-22T09:24:00.932Z,89680.41
2022-11-22T09:26:27.294Z,89676.28
2022-11-22T09:28:53.572Z,89675.00
2022-11-22T09:31:20.306Z,89668.66
2022-11-22T09:33:46.757Z,89681.63
2022-11-22T09:36:16.581Z,89682.00
2022-11-22T09:38:42.857Z,89685.47
2022-11-22T09:41:14.891Z,89681.50
2022-11-22T09:43:44.134Z,89685.81
2022-11-22T09:46:29.176Z,89688.44
2022-11-22T09:48:58.441Z,89704.91
2022-11-22T09:51:29.336Z,89700.75
2022-11-22T09:54:00.000Z,89697.97
2022-11-22T09:56:26.376Z,89696.50
2022-11-22T09:58:53.570Z,89703.28
2022-11-22T10:01:24.392Z,89701.97
2022-11-22T10:04:17.143Z,89701.03
2022-11-22T10:06:43.838Z,89699.75
2022-11-22T10:09:10.055Z,89697.50
2022-11-22T10:11:39.037Z,89696.97
2022-11-22T10:14:09.370Z,89698.75
2022-11-22T10:16:38.661Z,89693.47
2022-11-22T10:19:15.436Z,89701.41
2022-11-22T10:21:42.325Z,89692.06
2022-11-22T10:24:13.100Z,89685.44
2022-11-22T10:26:39.383Z,89688.72
2022-11-22T10:29:08.639Z,89695.09
2022-11-22T10:31:44.016Z,89691.66
2022-11-22T10:34:22.542Z,89696.91
2022-11-22T10:36:49.893Z,89691.75
2022-11-22T10:39:22.373Z,89687.22
2022-11-22T10:41:51.654Z,89692.72
2022-11-22T10:44:20.379Z,89694.31
2022-11-22T10:46:56.349Z,89681.34
2022-11-22T10:49:23.050Z,89684.84
2022-11-22T10:52:00.564Z,89684.84
2022-11-22T10:54:45.720Z,89683.81
2022-11-22T10:57:33.303Z,89685.78
2022-11-22T11:00:18.488Z,89686.09
2022-11-22T11:02:44.774Z,89686.91
2022-11-22T11:05:12.354Z,89690.91
2022-11-22T11:07:39.477Z,89689.81
2022-11-22T11:10:19.436Z,89692.03
2022-11-22T11:12:59.378Z,89681.78
2022-11-22T11:15:31.625Z,89677.69
2022-11-22T11:18:01.843Z,89678.69
2022-11-22T11:20:37.718Z,89689.66
2022-11-22T11:23:14.865Z,89688.00
2022-11-22T11:25:43.253Z,89685.50
2022-11-22T11:28:12.553Z,89682.59
2022-11-22T11:30:42.861Z,89678.09
2022-11-22T11:33:27.928Z,89680.06
2022-11-22T11:36:14.383Z,89679.88
2022-11-22T11:38:40.634Z,89677.28
2022-11-22T11:41:25.333Z,89678.25
2022-11-22T11:43:52.476Z,89674.97
2022-11-22T11:46:22.324Z,89674.91
2022-11-22T11:48:49.372Z,89673.72
2022-11-22T11:51:24.943Z,89673.91
2022-11-22T11:53:51.301Z,89677.41
2022-11-22T11:56:27.305Z,89673.91
2022-11-22T11:58:53.661Z,89668.41
2022-11-22T12:01:20.535Z,89674.91
2022-11-22T12:03:57.337Z,89667.88
2022-11-22T12:06:27.134Z,89665.19
2022-11-22T12:08:53.406Z,89667.06
2022-11-22T12:11:21.311Z,89657.56
2022-11-22T12:14:18.458Z,89657.13
2022-11-22T12:16:46.110Z,89658.88
2022-11-22T12:19:24.400Z,89662.41
2022-11-22T12:22:29.408Z,89660.41
2022-11-22T12:25:32.078Z,89663.88
2022-11-22T12:28:12.171Z,89662.59
2022-11-22T12:30:39.265Z,89647.09
2022-11-22T12:33:05.535Z,89655.94
2022-11-22T12:35:33.748Z,89658.69
2022-11-22T12:38:03.021Z,89656.75
2022-11-22T12:40:39.451Z,89660.94
2022-11-22T12:43:07.530Z,89652.75
2022-11-22T12:45:35.017Z,89654.56
2022-11-22T12:48:03.041Z,89658.31
2022-11-22T12:50:30.476Z,89660.59
2022-11-22T12:53:13.401Z,89655.31
2022-11-22T12:55:39.630Z,89666.63
2022-11-22T12:58:24.616Z,89660.38
2022-11-22T13:01:12.368Z,89647.28
2022-11-22T13:03:47.884Z,89640.63
2022-11-22T13:06:14.208Z,89644.38
2022-11-22T13:09:00.335Z,89638.09
2022-11-22T13:11:31.244Z,89650.13
2022-11-22T13:14:04.915Z,89649.84
2022-11-22T13:16:31.257Z,89637.97
2022-11-22T13:18:58.881Z,89644.03
2022-11-22T13:21:25.549Z,89648.00
2022-11-22T13:23:51.800Z,89646.28
2022-11-22T13:26:21.068Z,89649.34
2022-11-22T13:28:47.340Z,89645.50
2022-11-22T13:31:15.039Z,89641.00
2022-11-22T13:33:54.575Z,89646.38
2022-11-22T13:36:24.965Z,89649.28
2022-11-22T13:38:52.268Z,89649.00
2022-11-22T13:41:22.747Z,89649.16
2022-11-22T13:43:50.291Z,89646.41
2022-11-22T13:46:35.499Z,89649.72
2022-11-22T13:49:32.444Z,89647.31
2022-11-22T13:52:04.993Z,89648.56
2022-11-22T13:54:37.067Z,89644.91
2022-11-22T13:57:25.228Z,89644.22
2022-11-22T14:00:09.750Z,89642.31
2022-11-22T14:02:36.050Z,89641.81
2022-11-22T14:05:02.329Z,89647.03
2022-11-22T14:07:32.999Z,89659.34
2022-11-22T14:09:59.757Z,89651.19
2022-11-22T14:12:25.996Z,89660.38
2022-11-22T14:14:52.256Z,89659.28
2022-11-22T14:17:18.516Z,89660.16
2022-11-22T14:19:50.124Z,89660.19
2022-11-22T14:22:32.050Z,89654.22
2022-11-22T14:25:04.477Z,89657.63
2022-11-22T14:27:36.786Z,89666.44
2022-11-22T14:30:06.208Z,89658.25
2022-11-22T14:32:58.801Z,89655.63
2022-11-22T14:35:29.467Z,89659.66
2022-11-22T14:38:07.574Z,89659.47
2022-11-22T14:40:40.369Z,89664.06
2022-11-22T14:43:15.596Z,89668.16
2022-11-22T14:45:49.660Z,89672.16
2022-11-22T14:48:20.067Z,89670.25
2022-11-22T14:51:04.582Z,89677.81
2022-11-22T14:53:32.720Z,89680.56
2022-11-22T14:56:12.508Z,89678.72
2022-11-22T14:58:39.239Z,89677.19
2022-11-22T15:01:14.984Z,89680.69
2022-11-22T15:03:53.275Z,89684.50
2022-11-22T15:09:23.698Z,89680.75
2022-11-22T15:10:05.534Z,89679.63
2022-11-22T15:12:49.995Z,89693.69
2022-11-22T15:57:38.404Z,89738.19
2022-11-22T16:00:18.968Z,89746.03
2022-11-22T16:02:47.949Z,89749.09
2022-11-22T16:06:08.000Z,89757.00
2022-11-22T16:08:00.859Z,89750.53
2022-11-22T16:10:37.076Z,89752.38
2022-11-22T16:13:13.327Z,89747.50
2022-11-22T16:15:39.688Z,89744.47
2022-11-22T16:18:06.678Z,89749.59
2022-11-22T16:20:33.601Z,89756.66
2022-11-22T16:23:03.636Z,89746.41
2022-11-22T16:25:33.377Z,89755.13
2022-11-22T16:28:00.915Z,89758.28
2022-11-22T16:30:27.183Z,89767.78
2022-11-22T16:32:55.496Z,89760.75
2022-11-22T16:35:29.566Z,89760.56
2022-11-22T16:37:56.305Z,89768.31
2022-11-22T16:40:22.664Z,89773.19
2022-11-22T16:42:48.965Z,89771.09
2022-11-22T16:45:16.364Z,89768.59
2022-11-22T16:47:43.110Z,89777.75
2022-11-22T16:50:12.929Z,89777.78
2022-11-22T16:52:39.653Z,89773.22
2022-11-22T16:55:06.588Z,89777.78
2022-11-22T16:57:32.863Z,89785.13
2022-11-22T16:59:59.138Z,89790.28
2022-11-22T17:02:25.421Z,89794.00
2022-11-22T17:04:51.709Z,89793.44
2022-11-22T17:07:18.041Z,89794.13
2022-11-22T17:09:44.393Z,89796.06
2022-11-22T17:12:21.192Z,89796.63
2022-11-22T17:14:48.448Z,89803.84
2022-11-22T17:17:14.829Z,89802.31
2022-11-22T17:19:56.586Z,89805.50
2022-11-22T17:22:22.923Z,89803.56
2022-11-22T17:24:49.211Z,89812.25
2022-11-22T17:27:15.513Z,89807.81
2022-11-22T17:29:50.308Z,89807.66
2022-11-22T17:32:17.345Z,89807.13
2022-11-22T17:34:43.666Z,89820.13
2022-11-22T17:37:12.981Z,89808.91
2022-11-22T17:39:39.349Z,89810.16
2022-11-22T17:42:05.728Z,89808.50
2022-11-22T17:44:32.030Z,89816.53
2022-11-22T17:46:58.316Z,89816.69
2022-11-22T17:49:24.601Z,89820.03
2022-11-22T17:51:50.902Z,89825.41
2022-11-22T17:54:17.200Z,89826.78
2022-11-22T17:56:43.641Z,89833.28
2022-11-22T17:59:09.929Z,89831.75
2022-11-22T18:01:36.754Z,89829.69
2022-11-22T18:04:03.033Z,89838.97
2022-11-22T18:06:29.509Z,89833.44
2022-11-22T18:08:55.793Z,89830.38
2022-11-22T18:11:22.088Z,89837.03
2022-11-22T18:13:48.365Z,89836.50
2022-11-22T18:16:15.627Z,89835.22
2022-11-22T18:18:56.700Z,89840.59
2022-11-22T18:21:26.677Z,89838.25
2022-11-22T18:23:53.008Z,89845.91
2022-11-22T18:31:53.203Z,89850.06
2022-11-22T18:34:20.313Z,89846.28
2022-11-22T18:37:03.869Z,89841.72
2022-11-22T18:39:31.885Z,89845.06
2022-11-22T18:41:58.470Z,89846.31
2022-11-22T18:44:24.784Z,89858.09
2022-11-22T18:46:51.057Z,89849.94
2022-11-22T18:49:17.341Z,89857.97
2022-11-22T18:51:43.785Z,89861.41
2022-11-22T18:54:10.561Z,89860.31
2022-11-22T18:56:39.782Z,89859.50
2022-11-22T18:59:10.532Z,89868.22
2022-11-22T19:01:37.079Z,89867.25
2022-11-22T19:04:03.597Z,89870.56
2022-11-22T19:06:30.115Z,89860.44
2022-11-22T19:08:56.458Z,89868.91
2022-11-22T19:11:22.791Z,89868.63
2022-11-22T19:13:49.119Z,89869.03
2022-11-22T19:16:16.420Z,89883.03
2022-11-22T19:18:43.348Z,89879.56
2022-11-22T19:21:10.513Z,89877.75
2022-11-22T19:23:36.912Z,89872.06
2022-11-22T19:26:06.513Z,89878.53
2022-11-22T19:28:32.857Z,89880.94
2022-11-22T19:31:02.866Z,89874.00
2022-11-22T19:33:29.148Z,89869.97
2022-11-22T19:35:56.277Z,89873.56
2022-11-22T19:38:22.570Z,89867.28
2022-11-22T19:40:48.873Z,89859.88
2022-11-22T19:43:16.659Z,89861.94
2022-11-22T19:45:43.190Z,89862.72
2022-11-22T19:48:09.456Z,89850.59
2022-11-22T19:50:38.827Z,89855.44
2022-11-22T19:53:05.306Z,89848.22
2022-11-22T19:55:34.792Z,89848.81
2022-11-22T19:58:01.077Z,89851.44
2022-11-22T20:00:27.374Z,89847.56
2022-11-22T20:02:53.641Z,89853.91
2022-11-22T20:05:19.985Z,89855.47
2022-11-22T20:07:46.290Z,89855.16
2022-11-22T20:10:12.598Z,89847.38
2022-11-22T20:12:38.994Z,89856.81
2022-11-22T20:15:06.094Z,89849.47
2022-11-22T20:17:32.355Z,89851.25
2022-11-22T20:19:58.726Z,89858.06
2022-11-22T20:22:25.002Z,89852.03
2022-11-22T20:24:54.168Z,89859.66
2022-11-22T20:27:24.651Z,89851.75
2022-11-22T20:29:51.189Z,89851.75
2022-11-22T20:32:18.103Z,89853.28
2022-11-22T20:34:44.403Z,89861.66
2022-11-22T20:37:10.710Z,89851.56
2022-11-22T20:39:37.439Z,89855.72
2022-11-22T20:42:32.376Z,89859.75
2022-11-22T20:44:50.503Z,89853.81
2022-11-22T20:47:16.792Z,89861.59
2022-11-22T20:49:45.601Z,89871.31
2022-11-22T20:52:12.128Z,89866.84
2022-11-22T20:54:38.477Z,89864.50
2022-11-22T20:57:04.740Z,89867.50
2022-11-22T20:59:31.039Z,89873.06
2022-11-22T21:01:57.327Z,89868.56
2022-11-22T21:04:23.624Z,89871.81
2022-11-22T21:06:49.899Z,89873.22
2022-11-22T21:09:16.242Z,89877.72
2022-11-22T21:11:45.233Z,89881.59
2022-11-22T21:14:11.742Z,89884.13
2022-11-22T21:16:38.106Z,89886.38
2022-11-22T21:19:07.355Z,89896.97
2022-11-22T21:21:34.759Z,89896.91
2022-11-22T21:24:01.649Z,89904.56
2022-11-22T21:26:27.915Z,89907.06
2022-11-22T21:28:54.368Z,89912.38
2022-11-22T21:31:20.927Z,89913.16
2022-11-22T21:33:47.232Z,89913.69
2022-11-22T21:36:13.643Z,89913.00
2022-11-22T21:38:39.922Z,89909.94
2022-11-22T21:41:37.698Z,89904.56
2022-11-22T21:43:56.706Z,89910.41
2022-11-22T21:46:23.417Z,89913.66
2022-11-22T21:48:50.371Z,89917.72
2022-11-22T21:51:16.798Z,89911.91
2022-11-22T21:53:43.120Z,89912.56
2022-11-22T21:56:09.395Z,89912.72
2022-11-22T21:58:35.679Z,89912.44
2022-11-22T22:01:03.616Z,89917.09
2022-11-22T22:03:29.998Z,89906.06
2022-11-22T22:05:56.630Z,89908.34
2022-11-22T22:08:22.959Z,89904.66
2022-11-22T22:10:49.542Z,89910.25
2022-11-22T22:13:16.070Z,89908.66
2022-11-22T22:15:42.349Z,89905.97
2022-11-22T22:18:08.660Z,89901.84
2022-11-22T22:20:34.931Z,89890.19
2022-11-22T22:23:01.214Z,89894.97
2022-11-22T22:25:27.817Z,89902.97
2022-11-22T22:27:55.730Z,89909.72
2022-11-22T22:30:23.004Z,89905.28
2022-11-22T22:32:49.282Z,89910.34
2022-11-22T22:35:15.582Z,89899.72
2022-11-22T22:37:41.924Z,89905.22
2022-11-22T22:40:08.211Z,89902.16
2022-11-22T22:42:35.165Z,89904.28
2022-11-22T22:45:01.463Z,89910.50
2022-11-22T22:47:29.580Z,89910.03
2022-11-22T22:49:55.898Z,89905.03
2022-11-22T22:52:22.233Z,89917.06
2022-11-22T22:54:48.569Z,89915.50
2022-11-22T22:57:14.832Z,89924.41
2022-11-22T22:59:41.083Z,89906.31
2022-11-22T23:02:07.772Z,89905.59
2022-11-22T23:04:34.069Z,89912.69
2022-11-22T23:07:00.349Z,89909.38
2022-11-22T23:09:26.624Z,89910.56
2022-11-22T23:12:11.170Z,89918.94
2022-11-22T23:14:39.521Z,89904.44
2022-11-22T23:17:06.466Z,89904.72
2022-11-22T23:19:32.921Z,89903.88
2022-11-22T23:21:59.556Z,89907.56
2022-11-22T23:24:25.854Z,89913.47
2022-11-22T23:26:52.210Z,89916.06
2022-11-22T23:29:18.608Z,89916.16
2022-11-22T23:31:44.902Z,89908.88
2022-11-22T23:34:11.238Z,89907.84
2022-11-22T23:36:40.651Z,89912.88
2022-11-22T23:39:07.618Z,89916.66
2022-11-22T23:41:33.935Z,89911.53
2022-11-22T23:44:00.226Z,89912.19
2022-11-22T23:46:28.571Z,89904.50
2022-11-22T23:48:55.548Z,89903.78
2022-11-22T23:51:21.888Z,89903.16
2022-11-22T23:53:48.161Z,89900.59
2022-11-22T23:56:20.303Z,89904.69
2022-11-22T23:58:48.006Z,89906.50
